Channel-Port Aux Basques, Canada
Current Conditions -  °F | °C
As of 1:00 AM on Saturday 25 Oct 2014 (Local Time) from CWZB Reporting Station
Overcast Overcast  
Wind Chill: 51°   Ceiling: 800
Heat Index: 51°   Visibility: 9mi
Dew Point: 50°   Wind: 22mph
Humidity: 94%   Direction: 80°E
Pressure: 29.47"   Gusts: 32mph
Location:  47.57°N, 59.15°W
Report Text: CWZB 250300Z AUTO 08019G28KT 9SM OVC008 11/10 A2947 RMK SLP978 PK WND 07028/// T01080099 70098 WSI/SWOB
Loading
Personal Weather Stations






























Interactive Weather Map
Tropical Storm Tracking
New forecast layout! Learn more

10-Day Weather Forecast

Advertisements
Track Severe Weather on mobile